Time;durP1;ratioP1;P1;durP2;ratioP2;P2;SDS_P1;SDS_P2;PMS_P1;PMS_P2;Temp;Humidity;BMP_temperature;BMP_pressure;BME280_temperature;BME280_humidity;BME280_pressure;Samples;Min_cycle;Max_cycle;Signal;HPM_P1;HPM_P2
2023/05/18 00:00:45;;;;;;;1.80;0.90;;;;;;;;;;5059305;27;92196;-60
2023/05/18 00:03:13;;;;;;;1.50;0.63;;;;;;;;;;5047224;27;92099;-60
2023/05/18 00:05:42;;;;;;;1.40;0.80;;;;;;;;;;5044036;27;92990;-59
2023/05/18 00:08:11;;;;;;;1.17;0.60;;;;;;;;;;5060272;27;92735;-59
2023/05/18 00:10:39;;;;;;;0.83;0.73;;;;;;;;;;5060493;27;92053;-59
2023/05/18 00:13:07;;;;;;;0.97;0.73;;;;;;;;;;5061527;27;91325;-59
2023/05/18 00:15:36;;;;;;;0.77;0.60;;;;;;;;;;5059981;27;94509;-59
2023/05/18 00:18:07;;;;;;;0.90;0.60;;;;;;;;;;5060033;27;93677;-59
2023/05/18 00:20:37;;;;;;;1.10;0.83;;;;;;;;;;5060246;27;92908;-59
2023/05/18 00:23:15;;;;;;;1.27;1.00;;;;;;;;;;5060353;27;92001;-59
2023/05/18 00:25:43;;;;;;;1.47;1.00;;;;;;;;;;5059645;27;94165;-59
2023/05/18 00:28:12;;;;;;;0.50;0.40;;;;;;;;;;5060046;27;94117;-59
2023/05/18 00:30:40;;;;;;;1.07;0.80;;;;;;;;;;5059418;27;92298;-59
2023/05/18 00:33:11;;;;;;;0.57;0.57;;;;;;;;;;5053824;27;92081;-59
2023/05/18 00:35:40;;;;;;;3.50;0.63;;;;;;;;;;5041866;27;94447;-60
2023/05/18 00:38:08;;;;;;;2.00;0.60;;;;;;;;;;5059311;27;94025;-59
2023/05/18 00:40:38;;;;;;;2.03;0.70;;;;;;;;;;5059887;27;91932;-60
2023/05/18 00:43:07;;;;;;;0.47;0.47;;;;;;;;;;5060202;27;93202;-59
2023/05/18 00:45:35;;;;;;;0.70;0.70;;;;;;;;;;5058264;27;95051;-59
2023/05/18 00:48:04;;;;;;;2.10;0.70;;;;;;;;;;5059233;27;94796;-59
2023/05/18 00:50:35;;;;;;;1.00;0.70;;;;;;;;;;5060200;27;92060;-59
2023/05/18 00:53:05;;;;;;;0.50;0.40;;;;;;;;;;5060012;27;92091;-59
2023/05/18 00:55:33;;;;;;;0.57;0.50;;;;;;;;;;5060509;27;93137;-59
2023/05/18 00:58:02;;;;;;;0.77;0.50;;;;;;;;;;5059910;27;92927;-59
2023/05/18 01:00:30;;;;;;;0.57;0.57;;;;;;;;;;5059728;27;92046;-59
2023/05/18 01:02:59;;;;;;;0.87;0.70;;;;;;;;;;5060767;27;91190;-59
2023/05/18 01:05:29;;;;;;;0.60;0.43;;;;;;;;;;5059880;27;94275;-59
2023/05/18 01:08:01;;;;;;;1.47;0.93;;;;;;;;;;5059106;27;93779;-59
2023/05/18 01:10:30;;;;;;;0.30;0.30;;;;;;;;;;5040466;27;93682;-59
2023/05/18 01:13:00;;;;;;;0.93;0.50;;;;;;;;;;5054876;27;92140;-59
2023/05/18 01:15:31;;;;;;;0.73;0.47;;;;;;;;;;5059016;27;94165;-58
2023/05/18 01:18:04;;;;;;;0.33;0.33;;;;;;;;;;5059095;27;93852;-59
2023/05/18 01:20:36;;;;;;;0.90;0.50;;;;;;;;;;5040518;27;91980;-59
2023/05/18 01:23:29;;;;;;;0.90;0.60;;;;;;;;;;5059977;27;92156;-58
2023/05/18 01:26:14;;;;;;;0.87;0.80;;;;;;;;;;5039450;27;93147;-59
2023/05/18 01:28:45;;;;;;;0.30;0.30;;;;;;;;;;5039838;27;93836;-58
2023/05/18 01:31:14;;;;;;;2.20;0.57;;;;;;;;;;5045839;27;91777;-59
2023/05/18 01:33:43;;;;;;;0.70;0.40;;;;;;;;;;5049243;27;92040;-62
2023/05/18 01:36:11;;;;;;;2.10;0.77;;;;;;;;;;5058387;27;94081;-60
2023/05/18 01:38:40;;;;;;;1.23;0.50;;;;;;;;;;5058556;27;94819;-59
2023/05/18 01:41:17;;;;;;;0.87;0.50;;;;;;;;;;5059062;27;93402;-58
2023/05/18 01:43:51;;;;;;;0.47;0.47;;;;;;;;;;5059181;27;92163;-59
2023/05/18 01:46:22;;;;;;;0.60;0.60;;;;;;;;;;5059354;27;93536;-60
2023/05/18 01:48:52;;;;;;;1.07;0.53;;;;;;;;;;5059207;27;92371;-60
2023/05/18 01:51:21;;;;;;;0.43;0.43;;;;;;;;;;5059380;27;92095;-60
2023/05/18 01:53:52;;;;;;;0.83;0.70;;;;;;;;;;5059569;27;91285;-58
2023/05/18 01:56:21;;;;;;;0.50;0.50;;;;;;;;;;5059556;27;94228;-58
2023/05/18 01:58:51;;;;;;;1.40;0.70;;;;;;;;;;5058930;27;94103;-60
2023/05/18 02:01:21;;;;;;;0.93;0.67;;;;;;;;;;5058776;27;93027;-61
2023/05/18 02:03:50;;;;;;;0.80;0.80;;;;;;;;;;5059299;27;92076;-61
2023/05/18 02:06:18;;;;;;;0.60;0.60;;;;;;;;;;5059020;27;93058;-60
2023/05/18 02:08:48;;;;;;;0.67;0.40;;;;;;;;;;5058700;27;92950;-61
2023/05/18 02:11:19;;;;;;;1.93;0.63;;;;;;;;;;5058691;27;92149;-61
2023/05/18 02:13:49;;;;;;;0.57;0.57;;;;;;;;;;5058968;27;92182;-60
2023/05/18 02:16:21;;;;;;;2.20;0.80;;;;;;;;;;5059243;27;94140;-60
2023/05/18 02:18:53;;;;;;;0.37;0.37;;;;;;;;;;5059260;27;93590;-61
2023/05/18 02:21:24;;;;;;;1.93;1.00;;;;;;;;;;5058680;27;92060;-60
2023/05/18 02:23:53;;;;;;;0.63;0.63;;;;;;;;;;5058876;27;92168;-60
2023/05/18 02:26:21;;;;;;;0.50;0.50;;;;;;;;;;5057994;27;94032;-61
2023/05/18 02:28:51;;;;;;;0.30;0.30;;;;;;;;;;5059040;27;94873;-60
2023/05/18 02:31:21;;;;;;;0.50;0.50;;;;;;;;;;5058363;27;92103;-60
2023/05/18 02:33:50;;;;;;;1.10;0.60;;;;;;;;;;5058633;27;92095;-59
2023/05/18 02:36:21;;;;;;;1.00;0.60;;;;;;;;;;5059153;27;93248;-60
2023/05/18 02:38:50;;;;;;;0.77;0.50;;;;;;;;;;5058576;27;92711;-60
2023/05/18 02:41:19;;;;;;;1.03;0.50;;;;;;;;;;5058598;27;92178;-60
2023/05/18 02:43:48;;;;;;;0.60;0.37;;;;;;;;;;5058943;27;93661;-60
2023/05/18 02:46:18;;;;;;;0.53;0.53;;;;;;;;;;5061525;27;93150;-60
2023/05/18 02:48:50;;;;;;;3.80;0.60;;;;;;;;;;5062131;27;92086;-60
2023/05/18 02:51:21;;;;;;;0.43;0.43;;;;;;;;;;5060837;27;93074;-60
2023/05/18 02:53:52;;;;;;;0.97;0.47;;;;;;;;;;5061241;27;93359;-60
2023/05/18 02:56:20;;;;;;;3.87;0.63;;;;;;;;;;5061968;27;93155;-60
2023/05/18 02:58:49;;;;;;;0.43;0.43;;;;;;;;;;5061921;27;92869;-60
2023/05/18 03:01:19;;;;;;;1.53;0.70;;;;;;;;;;5061765;27;92065;-60
2023/05/18 03:03:48;;;;;;;1.80;0.50;;;;;;;;;;5061830;27;92068;-60
2023/05/18 03:06:16;;;;;;;1.27;0.70;;;;;;;;;;5062304;27;94146;-61
2023/05/18 03:08:47;;;;;;;0.47;0.47;;;;;;;;;;5061734;27;93832;-60
2023/05/18 03:11:16;;;;;;;0.77;0.60;;;;;;;;;;5062194;27;92212;-60
2023/05/18 03:13:44;;;;;;;0.63;0.50;;;;;;;;;;5062064;27;92110;-60
2023/05/18 03:16:13;;;;;;;0.50;0.50;;;;;;;;;;5061521;27;94197;-60
2023/05/18 03:18:43;;;;;;;0.30;0.30;;;;;;;;;;5061699;27;93744;-60
2023/05/18 03:21:15;;;;;;;0.30;0.30;;;;;;;;;;5062188;27;91883;-60
2023/05/18 03:23:43;;;;;;;1.40;0.60;;;;;;;;;;5061455;27;92135;-60
2023/05/18 03:26:13;;;;;;;0.40;0.40;;;;;;;;;;5062131;27;94122;-60
2023/05/18 03:28:41;;;;;;;2.63;0.70;;;;;;;;;;5061316;27;93823;-60
2023/05/18 03:31:09;;;;;;;0.47;0.47;;;;;;;;;;5061622;27;92047;-60
2023/05/18 03:33:38;;;;;;;0.37;0.37;;;;;;;;;;5062071;27;91365;-60
2023/05/18 03:36:08;;;;;;;4.20;1.13;;;;;;;;;;5061776;27;93168;-59
2023/05/18 03:38:38;;;;;;;1.70;0.50;;;;;;;;;;5061341;27;92773;-60
2023/05/18 03:41:06;;;;;;;0.40;0.40;;;;;;;;;;5060378;27;92967;-60
2023/05/18 03:43:34;;;;;;;0.47;0.47;;;;;;;;;;5060892;27;93266;-60
2023/05/18 03:46:03;;;;;;;0.93;0.73;;;;;;;;;;5061257;27;94125;-60
2023/05/18 03:48:32;;;;;;;0.77;0.40;;;;;;;;;;5060626;27;93856;-59
2023/05/18 03:51:00;;;;;;;2.30;0.50;;;;;;;;;;5060443;27;92438;-60
2023/05/18 03:53:30;;;;;;;1.53;0.40;;;;;;;;;;5060296;27;92831;-60
2023/05/18 03:56:00;;;;;;;0.40;0.40;;;;;;;;;;5060586;27;94270;-60
2023/05/18 03:58:29;;;;;;;0.50;0.40;;;;;;;;;;5057023;27;92763;-60
2023/05/18 04:00:57;;;;;;;0.70;0.70;;;;;;;;;;5060598;27;92034;-60
2023/05/18 04:03:25;;;;;;;0.50;0.50;;;;;;;;;;5060890;27;92083;-60
2023/05/18 04:05:54;;;;;;;0.43;0.43;;;;;;;;;;5060232;27;95109;-60
2023/05/18 04:08:25;;;;;;;2.60;0.43;;;;;;;;;;5059062;27;94811;-61
2023/05/18 04:10:55;;;;;;;2.60;0.40;;;;;;;;;;5059162;27;91833;-60
2023/05/18 04:13:23;;;;;;;2.47;0.40;;;;;;;;;;5051833;27;92121;-61
2023/05/18 04:15:52;;;;;;;0.40;0.40;;;;;;;;;;5060745;27;94397;-60
2023/05/18 04:18:22;;;;;;;0.30;0.30;;;;;;;;;;5062452;27;92993;-61
2023/05/18 04:20:50;;;;;;;0.30;0.30;;;;;;;;;;5062381;27;91959;-54
2023/05/18 04:23:20;;;;;;;5.97;0.67;;;;;;;;;;5050571;27;91341;-54
2023/05/18 04:25:49;;;;;;;0.70;0.40;;;;;;;;;;5060091;27;94217;-54
2023/05/18 04:28:20;;;;;;;1.07;0.60;;;;;;;;;;5060358;27;93908;-56
2023/05/18 04:30:48;;;;;;;1.63;0.83;;;;;;;;;;5049912;27;93073;-54
2023/05/18 04:33:19;;;;;;;1.40;0.63;;;;;;;;;;5040624;27;92044;-58
2023/05/18 04:35:49;;;;;;;1.23;0.77;;;;;;;;;;5039868;27;94229;-55
2023/05/18 04:38:21;;;;;;;0.50;0.50;;;;;;;;;;5041865;27;93841;-58
2023/05/18 04:40:50;;;;;;;0.43;0.43;;;;;;;;;;5060475;27;92049;-55
2023/05/18 04:43:20;;;;;;;1.00;0.30;;;;;;;;;;5060508;27;92085;-55
2023/05/18 04:45:50;;;;;;;0.87;0.80;;;;;;;;;;5060030;27;93124;-53
2023/05/18 04:48:18;;;;;;;0.27;0.27;;;;;;;;;;5060504;27;92613;-54
2023/05/18 04:50:47;;;;;;;0.63;0.63;;;;;;;;;;5060038;27;91897;-54
2023/05/18 04:53:16;;;;;;;0.40;0.40;;;;;;;;;;5060437;27;91930;-54
2023/05/18 04:55:45;;;;;;;0.20;0.20;;;;;;;;;;5054618;27;94191;-54
2023/05/18 04:58:14;;;;;;;0.50;0.50;;;;;;;;;;5039656;27;94852;-54
2023/05/18 05:00:43;;;;;;;0.50;0.40;;;;;;;;;;5040155;27;92040;-55
2023/05/18 05:03:12;;;;;;;2.07;0.60;;;;;;;;;;5039795;27;92170;-55
2023/05/18 05:05:40;;;;;;;0.43;0.30;;;;;;;;;;5039528;27;93081;-54
2023/05/18 05:08:09;;;;;;;0.77;0.47;;;;;;;;;;5039694;27;94143;-56
2023/05/18 05:10:37;;;;;;;2.93;0.60;;;;;;;;;;5040165;27;92017;-56
2023/05/18 05:13:08;;;;;;;1.13;0.60;;;;;;;;;;5040067;28;91305;-54
2023/05/18 05:15:36;;;;;;;0.37;0.37;;;;;;;;;;5039577;27;93323;-56
2023/05/18 05:18:06;;;;;;;0.67;0.60;;;;;;;;;;5039684;27;93767;-55
2023/05/18 05:20:35;;;;;;;0.60;0.47;;;;;;;;;;5039236;27;92986;-56
2023/05/18 05:23:03;;;;;;;0.97;0.50;;;;;;;;;;5039415;27;92092;-56
2023/05/18 05:25:32;;;;;;;0.50;0.40;;;;;;;;;;5039409;27;94112;-56
2023/05/18 05:28:01;;;;;;;0.33;0.33;;;;;;;;;;5039063;27;93805;-56
2023/05/18 05:30:30;;;;;;;0.30;0.30;;;;;;;;;;5039391;27;92065;-56
2023/05/18 05:32:58;;;;;;;0.63;0.57;;;;;;;;;;5039759;27;92035;-56
2023/05/18 05:35:28;;;;;;;0.37;0.37;;;;;;;;;;5039513;27;93207;-56
2023/05/18 05:38:05;;;;;;;0.30;0.30;;;;;;;;;;5039916;27;93767;-56
2023/05/18 05:40:33;;;;;;;0.60;0.60;;;;;;;;;;5039800;28;92100;-56
2023/05/18 05:43:05;;;;;;;0.50;0.30;;;;;;;;;;5039476;27;92009;-56
2023/05/18 05:45:33;;;;;;;1.13;0.50;;;;;;;;;;5038834;27;94103;-55
2023/05/18 05:48:02;;;;;;;0.37;0.37;;;;;;;;;;5038858;28;94852;-55
2023/05/18 05:50:33;;;;;;;0.40;0.40;;;;;;;;;;5039449;27;92132;-56
2023/05/18 05:53:02;;;;;;;0.50;0.50;;;;;;;;;;5039417;27;92014;-57
2023/05/18 05:55:31;;;;;;;2.43;0.50;;;;;;;;;;5039140;28;94273;-57
2023/05/18 05:57:59;;;;;;;0.63;0.60;;;;;;;;;;5038734;27;92919;-56
2023/05/18 06:00:28;;;;;;;1.57;0.60;;;;;;;;;;5038983;28;91963;-56
2023/05/18 06:02:57;;;;;;;1.00;0.70;;;;;;;;;;5058444;27;91323;-56
2023/05/18 06:05:26;;;;;;;1.03;0.53;;;;;;;;;;5059127;27;94109;-57
2023/05/18 06:07:56;;;;;;;1.57;0.30;;;;;;;;;;5059153;27;93108;-56
2023/05/18 06:10:24;;;;;;;1.50;0.60;;;;;;;;;;5058975;27;92982;-57
2023/05/18 06:12:54;;;;;;;1.13;0.70;;;;;;;;;;5059461;27;92216;-57
2023/05/18 06:15:23;;;;;;;1.13;0.87;;;;;;;;;;5058818;27;94313;-58
2023/05/18 06:17:53;;;;;;;1.07;0.40;;;;;;;;;;5059080;27;93887;-58
2023/05/18 06:20:21;;;;;;;1.43;0.67;;;;;;;;;;5060983;27;91888;-57
2023/05/18 06:22:50;;;;;;;0.73;0.50;;;;;;;;;;5062498;27;91934;-56
2023/05/18 06:25:23;;;;;;;0.80;0.57;;;;;;;;;;5061816;27;92054;-56
2023/05/18 06:27:51;;;;;;;2.13;0.47;;;;;;;;;;5062364;27;92009;-57
2023/05/18 06:30:20;;;;;;;1.13;0.60;;;;;;;;;;5062494;27;92046;-57
2023/05/18 06:32:48;;;;;;;0.70;0.57;;;;;;;;;;5062840;27;92235;-56
2023/05/18 06:35:16;;;;;;;0.83;0.60;;;;;;;;;;5061959;27;95226;-57
2023/05/18 06:37:45;;;;;;;0.33;0.33;;;;;;;;;;5062661;27;93614;-56
2023/05/18 06:40:14;;;;;;;0.57;0.50;;;;;;;;;;5062565;27;92010;-56
2023/05/18 06:42:44;;;;;;;0.63;0.63;;;;;;;;;;5062819;27;91961;-56
2023/05/18 06:45:13;;;;;;;1.70;0.60;;;;;;;;;;5062315;27;92478;-57
2023/05/18 06:47:41;;;;;;;1.30;0.40;;;;;;;;;;5061742;27;92930;-55
2023/05/18 06:50:10;;;;;;;0.77;0.70;;;;;;;;;;5062227;27;92070;-54
2023/05/18 06:52:39;;;;;;;1.23;0.47;;;;;;;;;;5062899;27;91339;-55
2023/05/18 06:55:08;;;;;;;0.60;0.60;;;;;;;;;;5062192;27;94200;-55
2023/05/18 06:57:37;;;;;;;0.63;0.50;;;;;;;;;;5060781;27;92323;-56
2023/05/18 07:00:11;;;;;;;0.50;0.50;;;;;;;;;;5061556;27;92940;-56
2023/05/18 07:02:44;;;;;;;0.57;0.57;;;;;;;;;;5047551;27;92157;-56
2023/05/18 07:05:13;;;;;;;1.80;0.77;;;;;;;;;;5041514;27;94169;-63
2023/05/18 07:07:41;;;;;;;0.40;0.40;;;;;;;;;;5041688;27;94043;-58
2023/05/18 07:10:10;;;;;;;1.23;0.73;;;;;;;;;;5041947;27;92088;-59
2023/05/18 07:12:41;;;;;;;1.30;1.00;;;;;;;;;;5041673;27;92064;-59
2023/05/18 07:15:12;;;;;;;0.80;0.80;;;;;;;;;;5053292;27;93511;-59
2023/05/18 07:17:40;;;;;;;1.50;1.03;;;;;;;;;;5059776;27;93877;-59
2023/05/18 07:20:09;;;;;;;1.47;0.97;;;;;;;;;;5060769;27;92128;-58
2023/05/18 07:22:39;;;;;;;1.10;0.97;;;;;;;;;;5060712;27;92014;-59
2023/05/18 07:25:08;;;;;;;0.93;0.83;;;;;;;;;;5061235;27;95124;-58
2023/05/18 07:27:36;;;;;;;0.87;0.77;;;;;;;;;;5061405;27;94791;-59
2023/05/18 07:30:07;;;;;;;2.17;1.00;;;;;;;;;;5061461;27;92094;-59
2023/05/18 07:32:37;;;;;;;7.17;1.23;;;;;;;;;;5060129;27;92124;-58
2023/05/18 07:35:06;;;;;;;2.47;0.97;;;;;;;;;;5060899;27;94107;-58
2023/05/18 07:37:34;;;;;;;1.23;0.90;;;;;;;;;;5061365;27;93980;-57
2023/05/18 07:40:03;;;;;;;0.97;0.80;;;;;;;;;;5061976;27;92073;-59
2023/05/18 07:42:32;;;;;;;2.20;0.97;;;;;;;;;;5062316;27;91366;-59
2023/05/18 07:45:02;;;;;;;1.23;1.13;;;;;;;;;;5061198;27;91902;-59
2023/05/18 07:47:31;;;;;;;1.03;0.87;;;;;;;;;;5061385;27;93926;-58
2023/05/18 07:50:02;;;;;;;1.90;1.10;;;;;;;;;;5061178;27;92967;-57
2023/05/18 07:52:30;;;;;;;2.83;1.20;;;;;;;;;;5061812;27;91946;-57
2023/05/18 07:55:01;;;;;;;3.63;0.90;;;;;;;;;;5061246;27;93299;-57
2023/05/18 07:57:29;;;;;;;0.97;0.70;;;;;;;;;;5060864;27;93965;-58
2023/05/18 07:59:58;;;;;;;1.10;0.77;;;;;;;;;;5061322;27;91936;-57
2023/05/18 08:02:26;;;;;;;0.63;0.53;;;;;;;;;;5061312;27;92290;-58
2023/05/18 08:04:56;;;;;;;1.90;0.93;;;;;;;;;;5060478;27;94076;-57
2023/05/18 08:07:28;;;;;;;1.67;1.10;;;;;;;;;;5061080;27;94238;-55
2023/05/18 08:09:57;;;;;;;3.60;0.40;;;;;;;;;;5060384;27;92069;-57
2023/05/18 08:12:25;;;;;;;2.60;0.80;;;;;;;;;;5060929;27;92148;-57
2023/05/18 08:14:54;;;;;;;0.53;0.50;;;;;;;;;;5060369;27;94209;-57
2023/05/18 08:17:22;;;;;;;4.53;1.00;;;;;;;;;;5060529;27;94898;-57
2023/05/18 08:19:52;;;;;;;0.73;0.73;;;;;;;;;;5061190;27;92039;-59
2023/05/18 08:22:21;;;;;;;4.83;0.57;;;;;;;;;;5060726;27;92083;-58
2023/05/18 08:24:50;;;;;;;2.17;0.60;;;;;;;;;;5060310;27;93208;-59
2023/05/18 08:27:19;;;;;;;1.37;0.50;;;;;;;;;;5060699;27;92947;-59
2023/05/18 08:29:47;;;;;;;0.77;0.43;;;;;;;;;;5061004;27;92016;-59
2023/05/18 08:32:17;;;;;;;0.70;0.70;;;;;;;;;;5061466;27;92129;-59
2023/05/18 08:34:49;;;;;;;2.93;0.70;;;;;;;;;;5060601;27;93151;-59
2023/05/18 08:37:17;;;;;;;2.00;0.80;;;;;;;;;;5060106;27;93874;-59
2023/05/18 08:39:45;;;;;;;4.60;0.73;;;;;;;;;;5060304;27;93026;-59
2023/05/18 08:42:18;;;;;;;2.20;0.80;;;;;;;;;;5060369;27;92034;-59
2023/05/18 08:44:47;;;;;;;0.40;0.40;;;;;;;;;;5060682;27;94270;-58
2023/05/18 08:47:16;;;;;;;0.93;0.67;;;;;;;;;;5059804;27;92105;-58
2023/05/18 08:49:44;;;;;;;4.87;0.87;;;;;;;;;;5060591;27;91938;-58
2023/05/18 08:52:15;;;;;;;0.57;0.50;;;;;;;;;;5059080;27;92032;-58
2023/05/18 08:54:44;;;;;;;2.87;0.77;;;;;;;;;;5060084;27;94324;-59
2023/05/18 08:57:12;;;;;;;0.77;0.77;;;;;;;;;;5059868;27;93787;-60
2023/05/18 08:59:42;;;;;;;2.23;0.50;;;;;;;;;;5060122;27;92136;-59
2023/05/18 09:02:11;;;;;;;0.40;0.40;;;;;;;;;;5059913;27;92164;-59
2023/05/18 09:04:39;;;;;;;1.27;0.70;;;;;;;;;;5059342;27;94055;-59
2023/05/18 09:07:09;;;;;;;1.43;0.60;;;;;;;;;;5039565;28;94726;-57
2023/05/18 09:09:38;;;;;;;0.43;0.40;;;;;;;;;;5040309;28;91934;-57
2023/05/18 09:12:08;;;;;;;0.77;0.77;;;;;;;;;;5050426;27;94315;-57
2023/05/18 09:14:36;;;;;;;5.93;0.83;;;;;;;;;;5037523;27;92052;-56
2023/05/18 09:17:08;;;;;;;0.60;0.60;;;;;;;;;;5041693;27;92862;-57
2023/05/18 09:19:36;;;;;;;1.23;0.57;;;;;;;;;;5059691;27;92066;-56
2023/05/18 09:22:05;;;;;;;1.60;0.87;;;;;;;;;;5060783;27;92773;-57
2023/05/18 09:24:33;;;;;;;2.57;1.17;;;;;;;;;;5059658;27;94470;-57
2023/05/18 09:27:02;;;;;;;0.40;0.40;;;;;;;;;;5059719;27;93816;-57
2023/05/18 09:29:30;;;;;;;0.90;0.70;;;;;;;;;;5059208;27;92970;-57
2023/05/18 09:32:04;;;;;;;1.63;0.70;;;;;;;;;;5059833;27;92055;-57
2023/05/18 09:34:44;;;;;;;1.03;0.70;;;;;;;;;;5059455;27;94382;-58
2023/05/18 09:37:14;;;;;;;1.30;0.70;;;;;;;;;;5058705;27;92291;-58
2023/05/18 09:39:42;;;;;;;1.53;0.83;;;;;;;;;;5059568;27;92035;-58
2023/05/18 09:42:12;;;;;;;0.50;0.50;;;;;;;;;;5059552;27;92033;-58
2023/05/18 09:44:41;;;;;;;1.07;0.60;;;;;;;;;;5059760;27;94268;-57
2023/05/18 09:47:10;;;;;;;3.17;0.73;;;;;;;;;;5064634;27;93837;-55
2023/05/18 09:49:39;;;;;;;0.50;0.50;;;;;;;;;;5079924;27;92023;-57
2023/05/18 09:52:11;;;;;;;2.10;0.50;;;;;;;;;;5079395;27;92155;-59
2023/05/18 09:54:41;;;;;;;2.73;0.50;;;;;;;;;;5077759;27;95240;-57
2023/05/18 09:57:10;;;;;;;4.33;0.97;;;;;;;;;;5079784;27;94810;-57
2023/05/18 09:59:38;;;;;;;0.63;0.50;;;;;;;;;;5079757;27;92063;-57
2023/05/18 10:02:07;;;;;;;4.23;0.67;;;;;;;;;;5080108;27;92021;-57
2023/05/18 10:04:37;;;;;;;1.50;0.60;;;;;;;;;;5079755;27;93048;-57
2023/05/18 10:07:13;;;;;;;3.90;0.63;;;;;;;;;;5079842;27;93824;-59
2023/05/18 10:09:42;;;;;;;1.67;1.03;;;;;;;;;;5079786;27;92156;-57
2023/05/18 10:12:12;;;;;;;0.73;0.73;;;;;;;;;;5080322;27;91354;-57
2023/05/18 10:14:44;;;;;;;3.63;0.60;;;;;;;;;;5079413;27;94330;-56
2023/05/18 10:17:13;;;;;;;0.73;0.63;;;;;;;;;;5079612;27;93708;-60
2023/05/18 10:19:44;;;;;;;2.03;0.50;;;;;;;;;;5079508;27;92986;-60
2023/05/18 10:22:15;;;;;;;0.50;0.50;;;;;;;;;;5079688;27;92030;-59
2023/05/18 10:24:43;;;;;;;2.73;0.70;;;;;;;;;;5079251;27;94048;-59
2023/05/18 10:27:11;;;;;;;2.87;0.90;;;;;;;;;;5079354;27;93966;-59
2023/05/18 10:29:40;;;;;;;1.33;0.47;;;;;;;;;;5079389;27;92186;-58
2023/05/18 10:32:08;;;;;;;0.70;0.70;;;;;;;;;;5079894;27;92025;-59
2023/05/18 10:34:37;;;;;;;1.50;0.67;;;;;;;;;;5079406;27;94111;-57
2023/05/18 10:37:05;;;;;;;0.47;0.40;;;;;;;;;;5080171;27;92837;-54
2023/05/18 10:39:38;;;;;;;0.63;0.60;;;;;;;;;;5080152;27;92091;-55
2023/05/18 10:42:08;;;;;;;1.07;0.83;;;;;;;;;;5079356;27;92031;-54
2023/05/18 10:44:36;;;;;;;1.80;0.30;;;;;;;;;;5078517;27;94134;-55
2023/05/18 10:47:05;;;;;;;3.47;1.00;;;;;;;;;;5079163;27;93842;-54
2023/05/18 10:49:33;;;;;;;1.30;0.60;;;;;;;;;;5079275;27;92082;-54
2023/05/18 10:52:02;;;;;;;0.70;0.50;;;;;;;;;;5079379;27;92050;-54
2023/05/18 10:54:32;;;;;;;1.90;0.97;;;;;;;;;;5078521;27;94122;-54
2023/05/18 10:57:03;;;;;;;3.13;0.60;;;;;;;;;;5079020;27;92033;-55
2023/05/18 10:59:35;;;;;;;3.17;0.97;;;;;;;;;;5079298;27;91970;-55
2023/05/18 11:02:06;;;;;;;2.00;0.90;;;;;;;;;;5080075;27;91232;-54
2023/05/18 11:04:35;;;;;;;0.83;0.50;;;;;;;;;;5078511;27;92899;-57
2023/05/18 11:07:07;;;;;;;1.60;0.97;;;;;;;;;;5080619;27;93856;-56
2023/05/18 11:09:37;;;;;;;1.50;0.70;;;;;;;;;;5081888;27;92849;-58
2023/05/18 11:12:07;;;;;;;0.87;0.67;;;;;;;;;;5082501;27;91975;-57
2023/05/18 11:14:37;;;;;;;0.53;0.50;;;;;;;;;;5082097;27;94164;-55
2023/05/18 11:17:18;;;;;;;1.33;0.60;;;;;;;;;;5082074;27;93934;-57
2023/05/18 11:20:05;;;;;;;0.70;0.60;;;;;;;;;;5082779;27;92200;-57
2023/05/18 11:22:44;;;;;;;0.40;0.40;;;;;;;;;;5065547;27;92182;-57
2023/05/18 11:25:27;;;;;;;1.80;0.60;;;;;;;;;;5060813;27;94167;-57
2023/05/18 11:28:00;;;;;;;0.50;0.50;;;;;;;;;;5061213;27;93947;-59
2023/05/18 11:30:29;;;;;;;1.37;0.70;;;;;;;;;;5061478;27;92098;-59
2023/05/18 11:33:08;;;;;;;2.17;0.77;;;;;;;;;;5062197;27;92071;-59
2023/05/18 11:35:51;;;;;;;0.97;0.63;;;;;;;;;;5060979;27;94073;-57
2023/05/18 11:38:20;;;;;;;1.83;0.63;;;;;;;;;;5061223;27;95007;-60
2023/05/18 11:40:48;;;;;;;0.70;0.70;;;;;;;;;;5060901;27;92116;-57
2023/05/18 11:43:26;;;;;;;2.67;0.57;;;;;;;;;;5061177;27;92026;-57
2023/05/18 11:45:55;;;;;;;1.03;0.60;;;;;;;;;;5054381;27;93251;-57
2023/05/18 11:48:28;;;;;;;0.40;0.40;;;;;;;;;;5060314;27;94028;-57
2023/05/18 11:50:57;;;;;;;0.77;0.77;;;;;;;;;;5061189;27;92104;-57
2023/05/18 11:53:26;;;;;;;1.63;0.63;;;;;;;;;;5056487;27;91468;-57
2023/05/18 11:55:56;;;;;;;1.03;0.80;;;;;;;;;;5059754;27;94062;-60
2023/05/18 11:58:28;;;;;;;0.60;0.60;;;;;;;;;;5058750;27;93963;-57
2023/05/18 12:01:00;;;;;;;2.93;0.80;;;;;;;;;;5060481;27;92998;-57
2023/05/18 12:03:28;;;;;;;0.63;0.60;;;;;;;;;;5061431;27;92104;-57
2023/05/18 12:05:58;;;;;;;0.63;0.40;;;;;;;;;;5060317;27;94350;-56
2023/05/18 12:08:28;;;;;;;0.50;0.30;;;;;;;;;;5056517;27;92774;-56
2023/05/18 12:10:56;;;;;;;2.47;0.97;;;;;;;;;;5054393;27;92124;-56
2023/05/18 12:13:27;;;;;;;1.87;0.60;;;;;;;;;;5060260;27;91985;-55
2023/05/18 12:15:56;;;;;;;4.53;0.63;;;;;;;;;;5060602;27;94149;-57
2023/05/18 12:18:29;;;;;;;0.73;0.50;;;;;;;;;;5052334;27;93762;-57
2023/05/18 12:21:00;;;;;;;2.00;0.80;;;;;;;;;;5059065;27;91960;-55
2023/05/18 12:23:38;;;;;;;0.80;0.60;;;;;;;;;;5059551;27;92111;-55
2023/05/18 12:26:07;;;;;;;0.47;0.47;;;;;;;;;;5058550;27;95360;-55
2023/05/18 12:28:37;;;;;;;0.50;0.50;;;;;;;;;;5059672;27;94783;-55
2023/05/18 12:31:07;;;;;;;1.80;0.93;;;;;;;;;;5060683;27;92190;-56
2023/05/18 12:33:35;;;;;;;0.53;0.53;;;;;;;;;;5060808;27;92020;-56
2023/05/18 12:36:04;;;;;;;2.97;0.90;;;;;;;;;;5060470;27;93142;-55
2023/05/18 12:38:33;;;;;;;1.30;0.77;;;;;;;;;;5060074;27;94101;-55
2023/05/18 12:41:02;;;;;;;1.57;0.97;;;;;;;;;;5060615;27;92050;-56
2023/05/18 12:43:35;;;;;;;2.07;0.70;;;;;;;;;;5061464;27;91343;-55
2023/05/18 12:46:04;;;;;;;3.37;0.97;;;;;;;;;;5060194;27;94119;-56
2023/05/18 12:48:36;;;;;;;0.60;0.60;;;;;;;;;;5060351;27;93861;-56
2023/05/18 12:51:05;;;;;;;0.77;0.47;;;;;;;;;;5059911;27;92989;-56
2023/05/18 12:53:41;;;;;;;1.43;0.70;;;;;;;;;;5061019;27;91947;-56
2023/05/18 12:56:10;;;;;;;1.47;0.70;;;;;;;;;;5055663;27;94298;-55
2023/05/18 12:58:39;;;;;;;2.50;0.87;;;;;;;;;;5059555;27;93746;-56
2023/05/18 13:01:09;;;;;;;0.53;0.53;;;;;;;;;;5060504;27;91991;-56
2023/05/18 13:03:39;;;;;;;1.43;0.50;;;;;;;;;;5060190;27;92046;-56
2023/05/18 13:06:08;;;;;;;6.20;0.90;;;;;;;;;;5060642;27;94264;-56
2023/05/18 13:08:38;;;;;;;0.67;0.67;;;;;;;;;;5059975;27;93953;-56
2023/05/18 13:11:06;;;;;;;1.80;0.60;;;;;;;;;;5060846;27;91791;-56
2023/05/18 13:13:38;;;;;;;0.70;0.70;;;;;;;;;;5060215;27;91955;-56
2023/05/18 13:16:10;;;;;;;2.13;0.73;;;;;;;;;;5058953;27;93512;-56
2023/05/18 13:18:40;;;;;;;4.60;0.67;;;;;;;;;;5059374;27;94801;-56
2023/05/18 13:21:09;;;;;;;2.33;0.50;;;;;;;;;;5059834;27;92210;-56
2023/05/18 13:23:38;;;;;;;6.03;0.60;;;;;;;;;;5060373;27;91961;-56
2023/05/18 13:26:06;;;;;;;1.43;0.93;;;;;;;;;;5059915;27;94316;-56
2023/05/18 13:28:35;;;;;;;3.33;1.00;;;;;;;;;;5054723;27;93824;-56
2023/05/18 13:31:04;;;;;;;0.97;0.60;;;;;;;;;;5059308;27;91928;-56
2023/05/18 13:33:32;;;;;;;0.50;0.50;;;;;;;;;;5059883;27;91321;-55
2023/05/18 13:36:02;;;;;;;1.13;0.90;;;;;;;;;;5058935;27;94219;-56
2023/05/18 13:38:36;;;;;;;1.13;0.60;;;;;;;;;;5059672;27;93852;-56
2023/05/18 13:41:07;;;;;;;2.53;0.67;;;;;;;;;;5058930;27;93082;-55
2023/05/18 13:43:35;;;;;;;0.73;0.60;;;;;;;;;;5059834;27;91927;-55
2023/05/18 13:46:04;;;;;;;0.50;0.50;;;;;;;;;;5059439;27;94292;-55
2023/05/18 13:48:36;;;;;;;1.73;0.60;;;;;;;;;;5059264;27;93820;-55
2023/05/18 13:51:06;;;;;;;0.40;0.40;;;;;;;;;;5059957;27;91949;-55
2023/05/18 13:53:34;;;;;;;0.63;0.63;;;;;;;;;;5059454;27;92101;-56
2023/05/18 13:56:07;;;;;;;2.33;0.73;;;;;;;;;;5059536;27;94191;-55
2023/05/18 13:58:36;;;;;;;3.07;0.77;;;;;;;;;;5059847;27;94085;-55
2023/05/18 14:01:07;;;;;;;2.17;0.60;;;;;;;;;;5059518;27;91870;-55
2023/05/18 14:03:39;;;;;;;0.50;0.50;;;;;;;;;;5059368;27;91966;-56
2023/05/18 14:06:09;;;;;;;0.50;0.50;;;;;;;;;;5058749;27;95084;-56
2023/05/18 14:08:37;;;;;;;2.33;0.57;;;;;;;;;;5059314;27;94696;-55
2023/05/18 14:11:07;;;;;;;0.50;0.50;;;;;;;;;;5059552;27;91920;-56
2023/05/18 14:13:36;;;;;;;0.50;0.50;;;;;;;;;;5059695;27;92073;-56
2023/05/18 14:16:05;;;;;;;2.10;0.63;;;;;;;;;;5058945;27;94066;-56
2023/05/18 14:18:33;;;;;;;0.83;0.40;;;;;;;;;;5058529;27;93796;-56
2023/05/18 14:21:04;;;;;;;0.40;0.40;;;;;;;;;;5059704;27;91894;-56
2023/05/18 14:23:34;;;;;;;1.17;0.70;;;;;;;;;;5059760;27;91057;-56
2023/05/18 14:26:03;;;;;;;0.60;0.50;;;;;;;;;;5059068;27;93278;-57
2023/05/18 14:28:32;;;;;;;1.77;0.60;;;;;;;;;;5059147;27;93972;-56
2023/05/18 14:31:00;;;;;;;1.60;0.70;;;;;;;;;;5058848;27;92928;-56
2023/05/18 14:33:29;;;;;;;1.30;0.77;;;;;;;;;;5059332;27;91925;-57
2023/05/18 14:35:58;;;;;;;0.67;0.67;;;;;;;;;;5059160;27;93223;-56
2023/05/18 14:38:26;;;;;;;1.00;0.57;;;;;;;;;;5058850;27;93775;-56
2023/05/18 14:40:58;;;;;;;2.50;0.70;;;;;;;;;;5060354;27;91834;-57
2023/05/18 14:43:26;;;;;;;2.10;1.00;;;;;;;;;;5062030;27;91928;-55
2023/05/18 14:45:55;;;;;;;2.70;0.90;;;;;;;;;;5061774;27;94178;-57
2023/05/18 14:48:37;;;;;;;0.40;0.40;;;;;;;;;;5062634;27;93842;-57
2023/05/18 14:51:06;;;;;;;1.13;0.93;;;;;;;;;;5062454;27;91745;-55
2023/05/18 14:53:34;;;;;;;0.97;0.57;;;;;;;;;;5061971;27;92074;-56
2023/05/18 14:56:07;;;;;;;1.83;0.90;;;;;;;;;;5061672;27;95266;-55
2023/05/18 14:58:35;;;;;;;1.07;0.63;;;;;;;;;;5062182;27;94877;-56